createdAt,value
2023-05-06T00:03:54.996Z,69.73
2023-05-06T00:08:58.447Z,70.17
2023-05-06T00:14:01.725Z,69.24
2023-05-06T00:19:07.697Z,68.68
2023-05-06T00:24:11.558Z,68.33
2023-05-06T00:29:14.947Z,68.18
2023-05-06T00:34:19.815Z,67.74
2023-05-06T00:39:23.036Z,67.35
2023-05-06T00:44:26.379Z,67.75
2023-05-06T00:49:31.586Z,67.38
2023-05-06T00:54:35.970Z,68.29
2023-05-06T00:59:39.876Z,68.58
2023-05-06T01:04:45.448Z,68.56
2023-05-06T01:09:55.436Z,68.31
2023-05-06T01:15:08.631Z,68.39
2023-05-06T01:20:15.390Z,68.31
2023-05-06T01:25:24.504Z,68.83
2023-05-06T01:30:37.233Z,68.66
2023-05-06T01:35:51.464Z,69.31
2023-05-06T01:40:59.128Z,69.15
2023-05-06T01:46:04.174Z,69.57
2023-05-06T01:51:08.325Z,69.38
2023-05-06T01:56:13.129Z,69.34
2023-05-06T02:01:16.780Z,69.41
2023-05-06T02:06:19.997Z,69.39
2023-05-06T02:11:24.640Z,69.36
2023-05-06T02:16:29.403Z,69.05
2023-05-06T02:21:33.197Z,69.26
2023-05-06T02:26:37.863Z,69.61
2023-05-06T02:31:41.241Z,69.71
2023-05-06T02:36:44.632Z,69.60
2023-05-06T02:41:49.417Z,70.69
2023-05-06T02:46:52.787Z,69.97
2023-05-06T02:51:56.109Z,69.55
2023-05-06T02:57:01.320Z,69.71
2023-05-06T03:02:04.802Z,69.26
2023-05-06T03:07:08.211Z,69.41
2023-05-06T03:12:13.072Z,69.14
2023-05-06T03:17:16.608Z,69.72
2023-05-06T03:22:20.098Z,68.65
2023-05-06T03:27:24.901Z,69.31
2023-05-06T03:32:28.254Z,69.24
2023-05-06T03:37:31.836Z,69.13
2023-05-06T03:42:36.519Z,69.71
2023-05-06T03:47:39.749Z,69.58
2023-05-06T03:52:43.287Z,67.68
2023-05-06T03:57:48.138Z,68.01
2023-05-06T04:02:51.528Z,67.50
2023-05-06T04:07:55.568Z,66.61
2023-05-06T04:13:00.307Z,65.01
2023-05-06T04:18:03.872Z,62.89
2023-05-06T04:23:07.491Z,62.60
2023-05-06T04:28:13.109Z,62.47
2023-05-06T04:33:17.667Z,62.32
2023-05-06T04:38:21.793Z,60.96
2023-05-06T04:43:26.634Z,59.95
2023-05-06T04:48:29.934Z,58.86
2023-05-06T04:53:33.416Z,58.16
2023-05-06T04:58:38.180Z,55.19
2023-05-06T05:03:44.450Z,55.72
2023-05-06T05:08:48.070Z,53.87
2023-05-06T05:13:54.229Z,54.16
2023-05-06T05:18:59.837Z,52.37
2023-05-06T05:24:05.444Z,50.87
2023-05-06T05:29:10.221Z,51.18
2023-05-06T05:34:13.614Z,52.07
2023-05-06T05:39:17.042Z,52.09
2023-05-06T05:44:21.894Z,51.72
2023-05-06T05:49:25.084Z,51.71
2023-05-06T05:54:28.609Z,51.03
2023-05-06T05:59:33.421Z,50.80
2023-05-06T06:04:36.835Z,50.47
2023-05-06T06:09:40.371Z,51.12
2023-05-06T06:14:48.301Z,48.90
2023-05-06T06:19:52.053Z,49.07
2023-05-06T06:24:55.721Z,49.11
2023-05-06T06:30:00.431Z,47.73
2023-05-06T06:35:03.793Z,45.66
2023-05-06T06:40:08.442Z,45.52
2023-05-06T06:45:15.326Z,45.16
2023-05-06T06:50:18.700Z,45.60
2023-05-06T06:55:22.239Z,47.07
2023-05-06T07:00:27.376Z,46.87
2023-05-06T07:05:30.889Z,45.12
2023-05-06T07:10:34.457Z,44.51
2023-05-06T07:15:39.492Z,43.30
2023-05-06T07:20:42.845Z,43.21
2023-05-06T07:25:46.178Z,42.61
2023-05-06T07:30:52.404Z,41.79
2023-05-06T07:35:55.983Z,41.03
2023-05-06T07:40:59.420Z,40.98
2023-05-06T07:46:04.554Z,40.23
2023-05-06T07:51:07.937Z,38.93
2023-05-06T07:56:11.705Z,37.87
2023-05-06T08:01:16.897Z,39.45
2023-05-06T08:06:20.225Z,33.83
2023-05-06T08:11:24.414Z,33.06
2023-05-06T08:16:29.442Z,31.76
2023-05-06T08:21:32.733Z,32.13
2023-05-06T08:26:36.509Z,32.99
2023-05-06T08:31:41.467Z,34.05
2023-05-06T08:36:44.769Z,30.69
2023-05-06T08:41:51.531Z,29.59
2023-05-06T08:46:56.908Z,27.60
2023-05-06T08:52:00.837Z,25.91
2023-05-06T08:57:06.507Z,22.68
2023-05-06T09:02:11.659Z,23.79
2023-05-06T09:07:15.152Z,22.68
2023-05-06T09:12:18.728Z,21.45
2023-05-06T09:17:26.841Z,18.91
2023-05-06T09:22:31.834Z,19.18
2023-05-06T09:27:37.006Z,18.35
2023-05-06T09:32:42.226Z,20.02
2023-05-06T09:37:46.551Z,22.64
2023-05-06T09:42:51.798Z,22.12
2023-05-06T09:47:57.203Z,22.53
2023-05-06T09:53:03.791Z,22.48
2023-05-06T09:58:08.585Z,19.89
2023-05-06T10:03:15.438Z,18.67
2023-05-06T10:08:20.333Z,21.86
2023-05-06T10:13:24.855Z,20.42
2023-05-06T10:18:32.012Z,16.04
2023-05-06T10:23:44.512Z,17.15
2023-05-06T10:28:52.805Z,19.72
2023-05-06T10:33:59.592Z,21.88
2023-05-06T10:39:03.739Z,23.52
2023-05-06T10:44:07.283Z,24.97
2023-05-06T10:49:21.168Z,27.38
2023-05-06T10:54:25.446Z,25.16
2023-05-06T10:59:30.094Z,19.11
2023-05-06T11:04:35.095Z,19.18
2023-05-06T11:09:56.283Z,21.02
2023-05-06T11:15:21.064Z,21.94
2023-05-06T11:20:27.648Z,19.60
2023-05-06T11:25:42.315Z,19.70
2023-05-06T11:30:56.675Z,19.32
2023-05-06T11:36:02.079Z,18.87
2023-05-06T11:41:05.729Z,19.37
2023-05-06T11:46:09.157Z,19.87
2023-05-06T11:51:13.810Z,21.40
2023-05-06T11:56:17.455Z,23.27
2023-05-06T12:01:20.977Z,21.67
2023-05-06T12:06:35.886Z,21.07
2023-05-06T12:11:40.904Z,21.49
2023-05-06T12:16:45.561Z,21.21
2023-05-06T12:21:50.568Z,22.00
2023-05-06T12:26:53.931Z,22.33
2023-05-06T12:32:09.432Z,19.23
2023-05-06T12:37:25.816Z,20.04
2023-05-06T12:42:29.412Z,21.27
2023-05-06T12:47:32.907Z,20.40
2023-05-06T12:52:45.296Z,21.72
2023-05-06T12:57:49.343Z,22.14
2023-05-06T13:02:52.812Z,18.28
2023-05-06T13:07:57.806Z,17.97
2023-05-06T13:13:01.063Z,18.47
2023-05-06T13:18:04.494Z,19.98
2023-05-06T13:23:09.496Z,21.66
2023-05-06T13:28:13.021Z,20.24
2023-05-06T13:33:16.212Z,19.10
2023-05-06T13:38:21.275Z,21.78
2023-05-06T13:43:26.188Z,23.68
2023-05-06T13:48:29.550Z,20.78
2023-05-06T13:53:35.422Z,18.78
2023-05-06T13:58:38.876Z,19.85
2023-05-06T14:03:42.145Z,21.90
2023-05-06T14:08:46.935Z,21.22
2023-05-06T14:13:50.303Z,22.35
2023-05-06T14:18:53.654Z,23.66
2023-05-06T14:23:58.951Z,25.02
2023-05-06T14:29:02.674Z,25.70
2023-05-06T14:34:06.221Z,26.67
2023-05-06T14:39:10.979Z,27.02
2023-05-06T14:44:14.231Z,28.13
2023-05-06T14:49:17.482Z,29.01
2023-05-06T14:54:22.378Z,28.64
2023-05-06T14:59:26.003Z,28.25
2023-05-06T15:04:29.218Z,27.25
2023-05-06T15:09:33.817Z,25.71
2023-05-06T15:14:37.582Z,26.89
2023-05-06T15:19:41.028Z,27.88
2023-05-06T15:24:45.994Z,28.84
2023-05-06T15:29:49.237Z,29.06
2023-05-06T15:34:52.574Z,29.23
2023-05-06T15:39:57.306Z,30.55
2023-05-06T15:45:00.963Z,31.68
2023-05-06T15:50:14.047Z,30.54
2023-05-06T15:55:26.623Z,31.45
2023-05-06T16:00:30.133Z,32.57
2023-05-06T16:05:33.654Z,31.72
2023-05-06T16:10:38.566Z,32.01
2023-05-06T16:15:42.203Z,32.57
2023-05-06T16:20:45.788Z,32.78
2023-05-06T16:25:50.857Z,33.61
2023-05-06T16:30:54.311Z,33.90
2023-05-06T16:35:57.904Z,34.52
2023-05-06T16:41:02.591Z,34.03
2023-05-06T16:46:06.405Z,35.12
2023-05-06T16:51:10.543Z,34.95
2023-05-06T16:56:15.417Z,34.69
2023-05-06T17:01:18.892Z,35.22
2023-05-06T17:06:23.981Z,36.35
2023-05-06T17:11:28.709Z,36.40
2023-05-06T17:16:33.242Z,36.68
2023-05-06T17:21:36.707Z,37.24
2023-05-06T17:26:41.877Z,38.32
2023-05-06T17:31:45.075Z,38.73
2023-05-06T17:36:48.447Z,39.28
2023-05-06T17:41:53.230Z,40.16
2023-05-06T17:46:56.612Z,40.01
2023-05-06T17:52:01.738Z,40.94
2023-05-06T17:57:06.914Z,42.26
2023-05-06T18:02:14.014Z,42.04
2023-05-06T18:07:17.423Z,42.79
2023-05-06T18:12:22.300Z,42.83
2023-05-06T18:17:25.964Z,43.02
2023-05-06T18:22:29.411Z,43.56
2023-05-06T18:27:34.129Z,43.30
2023-05-06T18:32:37.447Z,43.48
2023-05-06T18:37:41.081Z,43.68
2023-05-06T18:42:46.178Z,44.15
2023-05-06T18:47:49.573Z,43.78
2023-05-06T18:52:54.505Z,44.22
2023-05-06T18:57:59.294Z,44.88
2023-05-06T19:03:02.671Z,45.31
2023-05-06T19:08:07.537Z,45.42
2023-05-06T19:13:15.404Z,45.75
2023-05-06T19:18:18.804Z,46.28
2023-05-06T19:23:22.204Z,46.33
2023-05-06T19:28:26.958Z,47.38
2023-05-06T19:33:30.488Z,47.19
2023-05-06T19:38:33.907Z,48.23
2023-05-06T19:43:43.449Z,47.86
2023-05-06T19:48:47.094Z,49.32
2023-05-06T19:53:50.438Z,48.20
2023-05-06T19:58:55.468Z,49.60
2023-05-06T20:03:58.862Z,48.86
2023-05-06T20:09:02.090Z,50.11
2023-05-06T20:14:07.098Z,50.21
2023-05-06T20:19:11.424Z,50.60
2023-05-06T20:24:15.382Z,50.41
2023-05-06T20:29:20.306Z,50.80
2023-05-06T20:34:23.524Z,51.24
2023-05-06T20:39:26.939Z,51.87
2023-05-06T20:44:32.016Z,51.43
2023-05-06T20:49:35.483Z,52.49
2023-05-06T20:54:38.836Z,53.26
2023-05-06T20:59:44.096Z,52.10
2023-05-06T21:04:47.353Z,52.86
2023-05-06T21:09:50.575Z,53.77
2023-05-06T21:14:55.198Z,54.05
2023-05-06T21:19:58.469Z,54.59
2023-05-06T21:25:01.826Z,54.71
2023-05-06T21:30:10.642Z,55.01
2023-05-06T21:35:14.222Z,55.68
2023-05-06T21:40:18.055Z,55.41
2023-05-06T21:45:22.986Z,56.43
2023-05-06T21:50:26.449Z,56.07
2023-05-06T21:55:29.874Z,57.48
2023-05-06T22:00:34.884Z,57.40
2023-05-06T22:05:40.095Z,57.37
2023-05-06T22:10:43.322Z,58.10
2023-05-06T22:15:48.045Z,57.59
2023-05-06T22:20:52.556Z,58.20
2023-05-06T22:25:56.330Z,58.18
2023-05-06T22:31:02.210Z,58.79
2023-05-06T22:36:06.235Z,59.07
2023-05-06T22:41:09.506Z,59.14
2023-05-06T22:46:14.363Z,59.92
2023-05-06T22:51:17.970Z,60.05
2023-05-06T22:56:21.751Z,60.66
2023-05-06T23:01:32.136Z,61.30
2023-05-06T23:06:35.821Z,61.62
2023-05-06T23:11:39.250Z,61.10
2023-05-06T23:16:44.087Z,61.59
2023-05-06T23:21:47.353Z,61.26
2023-05-06T23:26:52.078Z,61.93
2023-05-06T23:31:56.698Z,62.57
2023-05-06T23:36:59.919Z,63.03
2023-05-06T23:42:03.463Z,63.27
2023-05-06T23:47:08.116Z,63.45
2023-05-06T23:52:12.245Z,63.51
2023-05-06T23:57:15.646Z,64.07
